Aktualne dane pomiarowe

Uwaga, wersja testowa! Automatyczne pobieranie danych za pomocą narzędzi lub skryptów to umożliwiających jest zabronione.

Dane meteo z obszaru Polski uzyskane na podstawie depesz SYNOP pobieranych co godzinę z NWS. Najedź myszką na symbol przedstawiony w tabeli, aby uzyskać informacje co do jego znaczenia. Prosimy pamiętać, że to testowa wersja strony, która jeszcze nie jest ukończona. Stworzono również jest krótki FAQ dotyczący korzystania z tej podstrony Anomalie temperatury w chwili obecnej odniesione są do okresu referencyjnego 1951-2016. Okres ten będzie później zmieniony na 1981-2010. Kliknij ikonę aby pobrać plik CSV. Kliknij ikonę aby wygenerować mapę synoptyczną dla danego terminu.

Wybierz Datę:    

        

Zielona Góra (12400)

Dane terminowe dla wybranej stacji. Kliknij datę, aby otrzymać dane z tego terminu dla wszystkich stacji.

TemperaturaZachmurzenieWiatrCiśnienieOpadyPogoda
 Data t td wb tx tn tg rh  Nt Nl Cl Cm Ch ws wd g1 g2 wx mslp ppp ch 24h 12h t ww ww w1 w2  
2019-07-04 23:00:00 17.1 4.1 10.2--- 4250.0wx-wxwx2wx---1016.8 994.0 -1.0---------
2019-07-04 22:00:00 16.6 4.3 10.1--- 4450.0wx-wxwx1wx--11017.0 994.2 -1.0---------
2019-07-04 21:00:00 17.9 4.1 10.6--- 4050.0wx-wxwx2wx--21017.3 994.6 -0.9---------
2019-07-04 20:00:00 18.3 4.1 10.8--- 3950.0wx-wxwx1wx--11017.7 995.0 -1.0---------
2019-07-04 19:00:00 19.5 3.6 11.2--- 3550.0wx-wxwx2wx--21017.8 995.2 -1.3---------
2019-07-04 18:00:00 20.4 3.6 11.6 22.1 13.8- 3340.0wx-wxwx3wx81131018.1 995.5 -1.6- 0.012------
2019-07-04 17:00:00 20.9 3.6 11.8--- 3240.0wx-wxwx3wx-1131018.5 996.0 -1.6---------
2019-07-04 16:00:00 21.5 2.7 11.8--- 2940.0wxwxwxwx3wx9--1019.0 996.5 -1.5---------
2019-07-04 15:00:00 21.7 2.4 11.8--- 2835.0wx-wx4wx91041019.6 997.1 -1.5---------
2019-07-04 14:00:00 21.9 2.0 11.7--- 2740.0wx-wx4wx-1041020.1 997.6 -1.5---------
2019-07-04 13:00:00 21.0 1.3 11.1--- 2740.0wx-wx4wx101041020.6 998.0 -1.6---------
2019-07-04 12:00:00 20.2 2.5 11.1--- 3140.0wxwxwxwx3wx8--1021.2 998.6 -1.3---------
2019-07-04 11:00:00 19.1 2.0 10.4--- 3240.0wxwxwxwx3wx-931021.8 999.1 -1.0---------
2019-07-04 10:00:00 17.8 2.5 10.0--- 3645.0wxwxwxwx4wx101041022.5 999.6 -0.5---------
2019-07-04 09:00:00 16.4 3.4 9.6--- 4245.0wxwxwx4wx9941022.9 999.9 0.1---------
2019-07-04 08:00:00 15.2 3.3 9.0--- 4545.0wxwxwx5wx--51023.21000.1 0.5---------
2019-07-04 07:00:00 14.5 5.3 9.4--- 5450.0wxwxwx3wx---1023.21000.1 0.7---------
2019-07-04 06:00:00 13.9 6.3 9.5 18.1 11.9 11 6050.0wx-3wx--31023.0 999.8 0.6- 0.012----- 11.2
2019-07-04 05:00:00 12.6 5.7 8.6--- 6350.0wxwxwx3wx--31022.9 999.6 0.3---------
2019-07-04 04:00:00 12.0 5.4 8.2--- 6450.0wxwxwx3wx--31022.7 999.4 0.2---------
2019-07-04 03:00:00 12.1 5.0 8.1--- 6250.0wxwxwx3wx--31022.5 999.2 0.3---------
2019-07-04 02:00:00 12.2 4.9 8.1--- 6150.0wxwxwx3wx--31022.6 999.3 0.4---------
2019-07-04 01:00:00 13.9 5.0 9.0--- 5550.0wxwxwx3wx--31022.4 999.2 0.1---------
2019-07-04 00:00:00 13.3 4.7 8.6--- 5650.0wxwxwx2wx--21022.1 998.9 -0.2- 0.06------
2019-07-03 23:00:00 13.4 4.5 8.5--- 5550.0wxwxwx1wx--11022.1 998.9 0.1---------
2019-07-03 22:00:00 14.3 4.6 9.0--- 5250.0wxwxwx1wx--11022.2 999.1 0.8---------
2019-07-03 21:00:00 15.2 4.5 9.4--- 4950.0wxwxwx2wx--21022.2 999.1 0.8---------
2019-07-03 20:00:00 15.7 4.4 9.6--- 4750.0wxwxwx2wx--21021.8 998.8 0.6---------
2019-07-03 19:00:00 16.9 4.2 10.2--- 4350.0wxwxwx2wx--21021.2 998.3 -0.1---------
2019-07-03 18:00:00 18.1 3.5 10.5 19.7 13.0- 3850.0wxwxwx5wx-1051021.1 998.3 -0.2- 0.012------
2019-07-03 17:00:00 18.6 4.0 10.9--- 3850.0wxwxwx4wx-941021.0 998.2 -0.6---------
2019-07-03 16:00:00 18.4 3.8 10.7--- 3845.0wxwxwx4wx-941021.2 998.4 -0.5---------
2019-07-03 15:00:00 18.7 3.3 10.7--- 3645.0wxwxwx4wx-1041021.3 998.5 -0.6---------
2019-07-03 14:00:00 18.6 3.6 10.8--- 3740.0wxwxwx4wx-1041021.6 998.8 -0.3---------
2019-07-03 13:00:00 18.5 3.5 10.7--- 3745.0wxwxwx2wx-1021021.7 998.9 0.0---------
2019-07-03 12:00:00 18.2 3.6 10.6--- 3840.0wxwxwx3wx---1021.9 999.1 0.3---------
2019-07-03 11:00:00 17.2 3.1 9.9--- 3940.0wxwxwx4wx9941022.0 999.1 0.3---------
2019-07-03 10:00:00 17.0 3.3 9.9--- 4040.0wxwxwx4wx-1041021.8 998.9 0.0---------
2019-07-03 09:00:00 17.3 3.6 10.1--- 4045.0wxwxwx4wx-841021.7 998.8 0.1---------
2019-07-03 08:00:00 15.7 4.1 9.5--- 4640.0wxwxwx4wx-841021.8 998.8 0.4---------
2019-07-03 07:00:00 14.2 4.2 8.8--- 5140.0wxwxwx4wx--41022.0 998.9 1.0---------
2019-07-03 06:00:00 13.0 4.9 8.5 19.5 10.8 10 5840.0wx-4wx--41021.9 998.7 0.9- 0.012----- 9.7
2019-07-03 05:00:00 11.8 4.7 7.8--- 6245.0wx-4wx--41021.7 998.4 0.8---------
2019-07-03 04:00:00 11.1 3.9 7.1--- 6140.0wx-3wx--31021.3 997.9 0.3---------
2019-07-03 03:00:00 10.9 3.7 6.9--- 6145.0wx-3wx--31021.2 997.8 0.4---------
2019-07-03 02:00:00 11.6 3.4 7.2--- 5745.0wx-3wx--31020.9 997.6 0.3---------
2019-07-03 01:00:00 12.8 3.4 7.8--- 5350.0wx-3wx--31020.8 997.6 0.5---------
2019-07-03 00:00:00 13.8 3.8 8.5--- 5150.0wx-3wx-1031020.5 997.4 0.5- 0.06------
3.2 ms

 

Print Friendly, PDF & Email